Hailsham, United Kingdom
Current Conditions -  °F | °C
As of 9:50 AM on Friday 28 Nov 2014 (Local Time) from EGKA Reporting Station
Broken Clouds Broken Clouds  
Wind Chill: 54°   Ceiling: 900
Heat Index: 54°   Visibility: 4mi
Dew Point: 50°   Wind: 12mph
Humidity: 88%   Direction: 80°E
Pressure: 29.56"   Gusts: NA
Location:  50.86°N, 0.26°E
Report Text: EGKA 280950Z 08010KT 6000 BKN009 12/10 Q1001
Loading
Personal Weather Stations






























Interactive Weather Map New forecast layout! Learn more

10-Day Weather Forecast

Advertisements
Track Severe Weather on mobile